Lena, Mississippi
Current Conditions -  °F | °C
As of 4:54 PM on Sunday 21 Dec 2014 (Local Time) from KJAN Reporting Station
Scattered Clouds Scattered Clouds  
Wind Chill: 53°   Ceiling: Unl
Heat Index: 53°   Visibility: 10mi
Dew Point: 46°   Wind: 7mph
Humidity: 77%   Direction: 150°SSE
Pressure: 30.01"   Gusts: NA
Location:  32.59°N, 89.61°W
Report Text: KJAN 212254Z 15006KT 10SM SCT250 12/08 A3001 RMK AO2 SLP161 T01170078
Loading
Personal Weather Stations






























Interactive Weather Map New forecast layout! Learn more

10-Day Weather Forecast

Advertisements
Track Severe Weather on mobile